Bostic, NC

2:42 PM EST on February 23, 2017 (GMT -0500)
Rutherford County-Marchman

Weather History for KFQD - January, 2014

Change the Weather History Date:

Friday, January 24, 2014

  Actual Average (KAVL) Record (KAVL)
Temperature  
Mean Temperature 18 °F -  
Max Temperature 29 °F 48 °F 74 °F (1949)
Min Temperature 8 °F 27 °F -7 °F (1963)
Degree Days  
Heating Degree Days 46    
Moisture  
Dew Point -8 °F    
Average Humidity 31    
Maximum Humidity 50    
Minimum Humidity 17    
Precipitation  
Precipitation 0.00 in - - ()
Sea Level Pressure  
Sea Level Pressure 30.43 in    
Wind  
Wind Speed 6 mph (NNW)    
Max Wind Speed 10 mph    
Max Gust Speed 17 mph    
Visibility 10 miles    
Events      
Averages and records for this station are not official NWS values.
T = Trace of Precipitation, MM = Missing Value Source: NWS Daily Summary

Daily Weather History Graph

Daily Weather History Graph

Search for Another Location

Airport or City:

Trip Planner

Search our weather history database for the weather conditions in past years. The results will help you decide how hot, cold, wet, or windy it might be!

Date:

Astronomy

Jan. 24, 2014 Rise Set
Actual Time 7:32 AM EST 5:47 PM EST
Civil Twilight 7:05 AM EST 6:14 PM EST
Nautical Twilight 6:34 AM EST 6:45 PM EST
Astronomical Twilight 6:04 AM EST 7:15 PM EST
Moon 1:01 AM EST (1/24) 12:03 PM EST (1/24)
Length of Visible Light 11h 09m
Length of Day
10h 14m
Last Quarter, 45% of the Moon is Illuminated
Jan 24
Last Quarter
Jan 30
New
Feb 6
First Quarter
Feb 14
Full
Feb 22
Last Quarter

Hourly Weather History & Observations

Time (EST) Temp. Windchill Dew Point Humidity Pressure Visibility Wind Dir Wind Speed Gust Speed Precip Events Conditions
12:15 AM 18.9 °F 8.8 °F -6.3 °F 33% 30.42 in 10.0 mi North 8.1 mph - N/A   Clear
12:35 AM 18.3 °F 7.3 °F -6.9 °F 33% 30.43 in 10.0 mi North 9.2 mph - N/A   Clear
12:55 AM 17.4 °F 8.0 °F -6.9 °F 34% 30.44 in 10.0 mi North 6.9 mph - N/A   Clear
1:15 AM 16.7 °F 11.2 °F -7.4 °F 34% 30.44 in 10.0 mi North 3.5 mph - N/A   Clear
1:35 AM 16.3 °F 5.7 °F -8.0 °F 34% 30.46 in 10.0 mi North 8.1 mph - N/A   Clear
1:55 AM 15.6 °F 7.0 °F -8.7 °F 34% 30.46 in 10.0 mi North 5.8 mph 9.2 mph N/A   Clear
2:15 AM 15.3 °F 2.8 °F -9.6 °F 33% 30.47 in 10.0 mi North 10.4 mph - N/A   Clear
2:35 AM 14.9 °F 4.0 °F -9.0 °F 34% 30.48 in 10.0 mi North 8.1 mph - N/A   Clear
2:55 AM 14.0 °F 1.2 °F -9.6 °F 34% 30.49 in 10.0 mi North 10.4 mph 17.3 mph N/A   Clear
3:15 AM 13.1 °F 2.8 °F -9.8 °F 36% 30.51 in 10.0 mi North 6.9 mph - N/A   Clear
3:35 AM 12.7 °F 0.4 °F -9.8 °F 36% 30.51 in 10.0 mi North 9.2 mph - N/A   Clear
3:55 AM 12.2 °F 1.7 °F -9.6 °F 37% 30.51 in 10.0 mi North 6.9 mph 16.1 mph N/A   Clear
4:15 AM 11.7 °F 2.3 °F -9.4 °F 38% 30.53 in 10.0 mi North 5.8 mph - N/A   Clear
4:35 AM 11.3 °F -1.3 °F -9.4 °F 39% 30.53 in 10.0 mi North 9.2 mph - N/A   Clear
4:55 AM 10.9 °F 0.2 °F -9.4 °F 40% 30.53 in 10.0 mi North 6.9 mph - N/A   Clear
5:15 AM 10.8 °F -2.0 °F -9.4 °F 40% 30.54 in 10.0 mi North 9.2 mph - N/A   Clear
5:35 AM 10.4 °F -1.5 °F -8.7 °F 42% 30.54 in 10.0 mi North 8.1 mph - N/A   Clear
5:55 AM 10.0 °F -0.9 °F -8.5 °F 43% 30.55 in 10.0 mi North 6.9 mph - N/A   Clear
6:15 AM 9.5 °F -1.5 °F -8.0 °F 45% 30.55 in 10.0 mi North 6.9 mph - N/A   Clear
6:35 AM 9.5 °F -1.5 °F -8.0 °F 45% 30.55 in 10.0 mi North 6.9 mph - N/A   Clear
6:55 AM 9.3 °F -0.5 °F -8.0 °F 46% 30.54 in 10.0 mi North 5.8 mph - N/A   Clear
7:15 AM 8.6 °F 0.1 °F -7.6 °F 48% 30.55 in 10.0 mi NNW 4.6 mph - N/A   Clear
7:35 AM 8.4 °F -1.6 °F -7.1 °F 49% 30.55 in 10.0 mi North 5.8 mph - N/A   Clear
7:55 AM 8.8 °F 0.4 °F -6.7 °F 50% 30.56 in 10.0 mi North 4.6 mph - N/A   Clear
8:15 AM 10.2 °F - -6.3 °F 47% 30.55 in 10.0 mi Calm Calm - N/A   Clear
8:35 AM 11.7 °F 1.1 °F -6.0 °F 45% 30.56 in 10.0 mi NNW 6.9 mph - N/A   Clear
8:55 AM 13.3 °F 3.0 °F -6.2 °F 42% 30.57 in 10.0 mi North 6.9 mph - N/A   Clear
9:15 AM 14.5 °F 7.1 °F -6.7 °F 39% 30.58 in 10.0 mi North 4.6 mph - N/A   Clear
9:35 AM 16.0 °F 7.4 °F -7.2 °F 35% 30.58 in 10.0 mi NNW 5.8 mph - N/A   Clear
9:55 AM 17.1 °F 10.0 °F -6.7 °F 35% 30.58 in 10.0 mi NW 4.6 mph - N/A   Clear
10:15 AM 18.1 °F 11.3 °F -7.4 °F 32% 30.58 in 10.0 mi WNW 4.6 mph - N/A   Clear
10:35 AM 19.0 °F - -8.5 °F 29% 30.58 in 10.0 mi Calm Calm - N/A   Clear
10:55 AM 20.5 °F - -8.1 °F 28% 30.57 in 10.0 mi Calm Calm - N/A   Clear
11:15 AM 21.2 °F - -8.9 °F 26% 30.57 in 10.0 mi Calm Calm - N/A   Clear
11:35 AM 22.1 °F 15.9 °F -10.1 °F 24% 30.56 in 10.0 mi North 4.6 mph - N/A   Clear
11:55 AM 23.5 °F 19.1 °F -7.8 °F 25% 30.54 in 10.0 mi NNW 3.5 mph - N/A   Clear
12:15 PM 23.2 °F 15.0 °F -9.6 °F 23% 30.53 in 10.0 mi NW 6.9 mph - N/A   Clear
12:35 PM 23.7 °F 16.6 °F -11.0 °F 21% 30.50 in 10.0 mi NNE 5.8 mph - N/A   Clear
12:55 PM 24.1 °F - -10.7 °F 21% 30.48 in 10.0 mi Calm Calm - N/A   Clear
1:15 PM 24.3 °F 18.4 °F -13.4 °F 19% 30.46 in 10.0 mi WSW 4.6 mph - N/A   Clear
1:35 PM 26.8 °F 21.4 °F -10.5 °F 19% 30.45 in 10.0 mi WNW 4.6 mph - N/A   Clear
1:55 PM 26.1 °F 21.9 °F -11.2 °F 19% 30.43 in 10.0 mi SW 3.5 mph - N/A   Clear
2:15 PM 27.1 °F - -10.5 °F 19% 30.42 in 10.0 mi Calm Calm - N/A   Clear
2:35 PM 27.1 °F 21.8 °F -9.8 °F 20% 30.41 in 10.0 mi South 4.6 mph - N/A   Clear
2:55 PM 28.4 °F 24.6 °F -9.9 °F 19% 30.39 in 10.0 mi South 3.5 mph - N/A   Clear
3:15 PM 28.8 °F 20.9 °F -9.4 °F 19% 30.38 in 10.0 mi SW 8.1 mph - N/A   Clear
3:35 PM 29.3 °F 21.5 °F -9.2 °F 19% 30.37 in 10.0 mi SSE 8.1 mph - N/A   Clear
3:55 PM 28.6 °F 23.5 °F -10.7 °F 18% 30.36 in 10.0 mi South 4.6 mph - N/A   Clear
4:15 PM 28.9 °F 23.9 °F -11.0 °F 17% 30.36 in 10.0 mi South 4.6 mph - N/A   Clear
4:35 PM 28.4 °F 19.7 °F -11.0 °F 18% 30.35 in 10.0 mi South 9.2 mph - N/A   Clear
4:55 PM 28.2 °F 23.1 °F -10.5 °F 18% 30.34 in 10.0 mi South 4.6 mph - N/A   Clear
5:15 PM 27.3 °F 18.4 °F -9.4 °F 20% 30.34 in 10.0 mi South 9.2 mph - N/A   Clear
5:35 PM 26.1 °F 19.4 °F -8.5 °F 22% 30.33 in 10.0 mi SSE 5.8 mph - N/A   Clear
5:55 PM 25.3 °F 18.5 °F -8.5 °F 23% 30.32 in 10.0 mi SSE 5.8 mph - N/A   Clear
6:15 PM 24.6 °F 17.7 °F -8.0 °F 24% 30.32 in 10.0 mi SSE 5.8 mph - N/A   Clear
6:35 PM 24.1 °F 18.2 °F -8.0 °F 24% 30.31 in 10.0 mi SSE 4.6 mph - N/A   Clear
6:55 PM 23.7 °F 16.6 °F -7.8 °F 25% 30.31 in 10.0 mi SSE 5.8 mph - N/A   Clear
7:15 PM 23.4 °F 16.2 °F -8.0 °F 25% 30.31 in 10.0 mi SSE 5.8 mph - N/A   Clear
7:35 PM 22.3 °F 14.9 °F -7.4 °F 27% 30.30 in 10.0 mi SSE 5.8 mph - N/A   Clear
7:55 PM 21.7 °F 15.5 °F -7.2 °F 28% 30.30 in 10.0 mi SSE 4.6 mph - N/A   Clear
8:15 PM 20.7 °F 14.2 °F -6.0 °F 31% 30.29 in 10.0 mi SSE 4.6 mph - N/A   Clear
8:35 PM 21.0 °F 16.2 °F -7.1 °F 29% 30.29 in 10.0 mi SSE 3.5 mph - N/A   Clear
8:55 PM 19.8 °F 14.7 °F -6.3 °F 31% 30.28 in 10.0 mi South 3.5 mph - N/A   Clear
9:15 PM 19.4 °F 12.8 °F -5.8 °F 33% 30.26 in 10.0 mi SSE 4.6 mph - N/A   Clear
9:35 PM 18.7 °F 10.6 °F -5.6 °F 34% 30.25 in 10.0 mi South 5.8 mph - N/A   Clear
9:55 PM 19.2 °F 14.1 °F -6.0 °F 33% 30.25 in 10.0 mi SSE 3.5 mph - N/A   Clear
10:15 PM 19.0 °F 12.3 °F -5.4 °F 34% 30.24 in 10.0 mi South 4.6 mph - N/A   Clear
10:35 PM 19.9 °F 13.4 °F -4.9 °F 33% 30.24 in 10.0 mi SSW 4.6 mph - N/A   Clear
10:55 PM 19.9 °F 14.9 °F -4.7 °F 34% 30.24 in 10.0 mi SSW 3.5 mph - N/A   Clear
11:15 PM 19.2 °F 14.1 °F -4.0 °F 36% 30.22 in 10.0 mi South 3.5 mph - N/A   Clear
11:35 PM 19.2 °F 14.1 °F -4.4 °F 35% 30.22 in 10.0 mi South 3.5 mph - N/A   Clear
11:55 PM 18.3 °F 11.5 °F -3.8 °F 38% 30.21 in 10.0 mi South 4.6 mph - N/A   Clear